Marquette, Kansas
Current Conditions -  °F | °C
As of 5:53 AM on Thursday 23 Oct 2014 (Local Time) from KSLN Reporting Station
Overcast Overcast  
Wind Chill: 63°   Ceiling: 2400
Heat Index: 63°   Visibility: 10mi
Dew Point: 58°   Wind: 8mph
Humidity: 84%   Direction: 210°SSW
Pressure: 30.06"   Gusts: NA
Location:  38.56°N, 97.83°W
Report Text: KSLN 231053Z AUTO 21007KT 10SM OVC024 17/14 A3006 RMK AO2 SLP172 T01720144
Loading
Personal Weather Stations






























Interactive Weather Map
Tropical Storm Tracking
New forecast layout! Learn more

10-Day Weather Forecast

Advertisements
Track Severe Weather on mobile